Terminal Aerodrome Forecast
Issued by NWS

Home | Current Version | Previous Version | Text Only | Print | Product List | Glossary On
Versions: 1 2 3 4 5 6 7 8 9 10 11 12 13
000
FTAK31 PAJN 241100
TAFAKT
TAF
PAKT 241128Z 2412/2512 31005KT P6SM SCT050 BKN100
     FM241800 05005KT P6SM VCSH FEW035 BKN080
     FM242200 14008KT P6SM FEW025 OVC040
     FM250300 15004KT P6SM -RA SCT025 OVC035
     FM250900 15004KT 4SM -RA BR OVC025
      AMD LTD TO CLD VIS AND WIND 2412/2415=

USA.gov is the U.S. government's official web portal to all federal, state and local government web resources and services.